Time;durP1;ratioP1;P1;durP2;ratioP2;P2;SDS_P1;SDS_P2;PMS_P1;PMS_P2;Temp;Humidity;BMP_temperature;BMP_pressure;BME280_temperature;BME280_humidity;BME280_pressure;Samples;Min_cycle;Max_cycle;Signal;HPM_P1;HPM_P2
2021/12/21 00:00:45;;;;;;;10.45;5.40;;;;;;;;;;5033391;28;20073;-36
2021/12/21 00:03:10;;;;;;;8.85;5.75;;;;;;;;;;5033241;28;20036;-36
2021/12/21 00:05:36;;;;;;;7.90;4.82;;;;;;;;;;5033297;28;20037;-36
2021/12/21 00:08:03;;;;;;;10.48;5.60;;;;;;;;;;5033272;28;20018;-36
2021/12/21 00:10:30;;;;;;;8.40;5.28;;;;;;;;;;5033086;28;20116;-36
2021/12/21 00:15:39;;;;;;;8.90;5.18;;;;;;;;;;5032917;28;20048;-35
2021/12/21 00:18:22;;;;;;;10.32;5.75;;;;;;;;;;5033107;28;20104;-36
2021/12/21 00:23:37;;;;;;;9.07;4.55;;;;;;;;;;5032926;28;20038;-35
2021/12/21 00:26:03;;;;;;;7.07;4.15;;;;;;;;;;5031606;28;20037;-36
2021/12/21 00:28:36;;;;;;;5.40;3.80;;;;;;;;;;5032849;28;20009;-36
2021/12/21 00:31:02;;;;;;;8.55;4.88;;;;;;;;;;5032763;28;20037;-36
2021/12/21 00:33:28;;;;;;;10.23;4.03;;;;;;;;;;5032655;28;20053;-35
2021/12/21 00:35:53;;;;;;;9.88;4.72;;;;;;;;;;5032913;28;20087;-36
2021/12/21 00:38:19;;;;;;;8.52;3.83;;;;;;;;;;5032516;28;20044;-36
2021/12/21 00:40:44;;;;;;;11.75;5.05;;;;;;;;;;5032712;28;20503;-35
2021/12/21 00:43:09;;;;;;;7.97;4.70;;;;;;;;;;5032558;28;20041;-35
2021/12/21 00:45:35;;;;;;;8.45;4.13;;;;;;;;;;5032442;28;20026;-36
2021/12/21 00:48:00;;;;;;;8.25;4.38;;;;;;;;;;5032862;28;20029;-35
2021/12/21 00:50:26;;;;;;;9.50;5.20;;;;;;;;;;5032625;28;20041;-35
2021/12/21 00:52:52;;;;;;;10.90;5.25;;;;;;;;;;5032354;28;20029;-35
2021/12/21 00:55:18;;;;;;;10.98;4.72;;;;;;;;;;5032232;28;20029;-35
2021/12/21 00:57:44;;;;;;;9.25;5.15;;;;;;;;;;5032317;28;20052;-35
2021/12/21 01:00:11;;;;;;;10.95;4.35;;;;;;;;;;5032124;28;20110;-36
2021/12/21 01:02:37;;;;;;;8.18;4.35;;;;;;;;;;5032323;28;20033;-36
2021/12/21 01:05:04;;;;;;;6.65;4.57;;;;;;;;;;5032163;28;20037;-36
2021/12/21 01:07:36;;;;;;;13.32;5.90;;;;;;;;;;5031976;28;20377;-35
2021/12/21 01:13:13;;;;;;;10.57;4.80;;;;;;;;;;5030879;28;20045;-35
2021/12/21 01:18:13;;;;;;;10.55;5.57;;;;;;;;;;5032034;28;20032;-36
2021/12/21 01:25:51;;;;;;;11.95;5.25;;;;;;;;;;5031788;28;20034;-36
2021/12/21 01:28:44;;;;;;;7.88;3.85;;;;;;;;;;5031929;28;20035;-35
2021/12/21 01:33:53;;;;;;;9.40;5.00;;;;;;;;;;5031218;28;20022;-35
2021/12/21 01:39:16;;;;;;;9.07;5.78;;;;;;;;;;5031975;28;20068;-36
2021/12/21 01:41:53;;;;;;;8.48;4.15;;;;;;;;;;5031503;28;20775;-36
2021/12/21 01:44:43;;;;;;;9.30;5.15;;;;;;;;;;5031515;28;20053;-35
2021/12/21 01:49:50;;;;;;;7.95;4.30;;;;;;;;;;5031673;28;20029;-36
2021/12/21 01:52:17;;;;;;;8.82;4.78;;;;;;;;;;5031403;28;20389;-36
2021/12/21 01:54:43;;;;;;;7.32;4.03;;;;;;;;;;5031750;28;20029;-36
2021/12/21 01:57:08;;;;;;;11.23;5.57;;;;;;;;;;5031517;28;20045;-36
2021/12/21 01:59:34;;;;;;;12.18;4.13;;;;;;;;;;5031350;28;20038;-36
2021/12/21 02:02:00;;;;;;;8.18;4.75;;;;;;;;;;5031266;28;20025;-36
2021/12/21 02:04:25;;;;;;;10.23;4.90;;;;;;;;;;5031174;28;20029;-35
2021/12/21 02:06:52;;;;;;;7.10;4.35;;;;;;;;;;5031287;28;20021;-35
2021/12/21 02:09:19;;;;;;;7.57;3.97;;;;;;;;;;5031137;28;20030;-36
2021/12/21 02:11:48;;;;;;;8.13;4.13;;;;;;;;;;5031247;28;20470;-35
2021/12/21 02:14:14;;;;;;;5.68;4.22;;;;;;;;;;5031392;28;20469;-36
2021/12/21 02:19:22;;;;;;;9.37;4.07;;;;;;;;;;5031100;28;20553;-36
2021/12/21 02:21:53;;;;;;;10.48;4.97;;;;;;;;;;5031145;28;20361;-36
2021/12/21 02:24:23;;;;;;;7.75;4.70;;;;;;;;;;5030949;28;20025;-36
2021/12/21 02:27:07;;;;;;;9.95;4.18;;;;;;;;;;5030147;28;20084;-36
2021/12/21 02:29:34;;;;;;;13.45;4.97;;;;;;;;;;5031325;28;20021;-36
2021/12/21 02:32:00;;;;;;;9.10;4.85;;;;;;;;;;5030990;28;20022;-36
2021/12/21 02:34:26;;;;;;;7.65;4.45;;;;;;;;;;5030922;28;20396;-36
2021/12/21 02:36:53;;;;;;;16.70;5.22;;;;;;;;;;5030888;28;20030;-36
2021/12/21 02:39:19;;;;;;;10.85;4.63;;;;;;;;;;5031052;28;20025;-36
2021/12/21 02:41:44;;;;;;;14.07;5.13;;;;;;;;;;5031230;28;20048;-35
2021/12/21 02:44:10;;;;;;;12.43;4.93;;;;;;;;;;5033522;28;20468;-36
2021/12/21 02:46:39;;;;;;;6.45;3.80;;;;;;;;;;5035003;28;20030;-36
2021/12/21 02:49:05;;;;;;;9.35;4.78;;;;;;;;;;5033836;28;20506;-36
2021/12/21 02:51:30;;;;;;;9.38;4.78;;;;;;;;;;5034640;28;20163;-35
2021/12/21 02:53:56;;;;;;;10.20;5.05;;;;;;;;;;5035085;28;20485;-36
2021/12/21 02:56:21;;;;;;;9.48;4.95;;;;;;;;;;5034700;28;20040;-36
2021/12/21 02:58:47;;;;;;;9.60;5.18;;;;;;;;;;5034615;28;20381;-36
2021/12/21 03:01:12;;;;;;;10.38;5.55;;;;;;;;;;5034728;28;20035;-36
2021/12/21 03:03:38;;;;;;;8.65;5.20;;;;;;;;;;5034792;28;20028;-35
2021/12/21 03:06:08;;;;;;;13.88;6.78;;;;;;;;;;5034630;28;20029;-35
2021/12/21 03:08:49;;;;;;;10.73;6.70;;;;;;;;;;5034609;28;20040;-36
2021/12/21 03:16:24;;;;;;;12.73;6.03;;;;;;;;;;5034086;28;20116;-36
2021/12/21 03:18:49;;;;;;;12.63;5.95;;;;;;;;;;5034272;28;20029;-36
2021/12/21 03:21:14;;;;;;;10.88;5.30;;;;;;;;;;5034251;28;20038;-35
2021/12/21 03:23:40;;;;;;;14.98;7.00;;;;;;;;;;5034190;28;20021;-35
2021/12/21 03:26:06;;;;;;;15.35;6.32;;;;;;;;;;5034017;28;20039;-40
2021/12/21 03:28:31;;;;;;;9.32;5.88;;;;;;;;;;5033925;28;20025;-36
2021/12/21 03:30:57;;;;;;;11.23;5.40;;;;;;;;;;5033906;28;20036;-36
2021/12/21 03:33:22;;;;;;;13.90;6.95;;;;;;;;;;5033881;28;20017;-36
2021/12/21 03:35:48;;;;;;;12.93;6.05;;;;;;;;;;5033745;28;20044;-36
2021/12/21 03:38:15;;;;;;;10.23;5.07;;;;;;;;;;5034046;28;20064;-36
2021/12/21 03:40:41;;;;;;;8.55;5.03;;;;;;;;;;5032536;28;20134;-36
2021/12/21 03:43:06;;;;;;;11.63;5.60;;;;;;;;;;5033672;28;20112;-36
2021/12/21 03:45:36;;;;;;;9.10;5.38;;;;;;;;;;5033907;28;20036;-36
2021/12/21 03:48:01;;;;;;;6.40;4.35;;;;;;;;;;5033926;28;20494;-39
2021/12/21 03:50:27;;;;;;;13.85;5.72;;;;;;;;;;5032139;28;20116;-36
2021/12/21 03:52:53;;;;;;;11.32;6.97;;;;;;;;;;5033922;28;20036;-35
2021/12/21 03:55:18;;;;;;;11.25;6.45;;;;;;;;;;5032385;28;20025;-36
2021/12/21 03:57:44;;;;;;;14.52;5.38;;;;;;;;;;5033470;28;20067;-36
2021/12/21 04:00:13;;;;;;;12.18;5.40;;;;;;;;;;5033486;28;20028;-35
2021/12/21 04:02:38;;;;;;;11.40;5.65;;;;;;;;;;5033670;28;20021;-36
2021/12/21 04:05:04;;;;;;;12.50;7.72;;;;;;;;;;5033346;28;20037;-36
2021/12/21 04:07:30;;;;;;;11.15;5.70;;;;;;;;;;5033240;28;20064;-36
2021/12/21 04:09:56;;;;;;;11.60;5.63;;;;;;;;;;5033575;28;20060;-36
2021/12/21 04:12:21;;;;;;;12.63;5.55;;;;;;;;;;5033341;28;20018;-35
2021/12/21 04:14:47;;;;;;;14.93;5.13;;;;;;;;;;5033146;28;20383;-35
2021/12/21 04:17:18;;;;;;;19.02;6.63;;;;;;;;;;5031659;28;20088;-36
2021/12/21 04:19:44;;;;;;;10.35;6.13;;;;;;;;;;5033069;28;20072;-35
2021/12/21 04:22:09;;;;;;;18.38;7.18;;;;;;;;;;5033281;28;20554;-35
2021/12/21 04:24:35;;;;;;;11.07;6.75;;;;;;;;;;5033104;28;20065;-36
2021/12/21 04:27:00;;;;;;;9.82;5.50;;;;;;;;;;5032972;28;20025;-36
2021/12/21 04:29:25;;;;;;;8.25;5.57;;;;;;;;;;5033123;28;20487;-35
2021/12/21 04:31:51;;;;;;;9.00;5.18;;;;;;;;;;5032873;28;20483;-40
2021/12/21 04:34:17;;;;;;;14.00;5.85;;;;;;;;;;5032737;28;20037;-36
2021/12/21 04:36:44;;;;;;;12.40;6.88;;;;;;;;;;5032916;28;20041;-36
2021/12/21 04:39:20;;;;;;;11.77;6.15;;;;;;;;;;5032675;28;20099;-36
2021/12/21 04:41:46;;;;;;;16.02;7.93;;;;;;;;;;5032688;28;20037;-36
2021/12/21 04:44:11;;;;;;;10.88;6.57;;;;;;;;;;5032519;28;20533;-36
2021/12/21 04:46:37;;;;;;;16.15;7.70;;;;;;;;;;5032717;28;20079;-36
2021/12/21 04:49:02;;;;;;;15.27;6.90;;;;;;;;;;5032574;28;20026;-36
2021/12/21 04:51:28;;;;;;;12.80;7.10;;;;;;;;;;5032672;28;20038;-36
2021/12/21 04:53:53;;;;;;;7.97;4.70;;;;;;;;;;5032627;28;20037;-36
2021/12/21 04:56:18;;;;;;;11.18;5.03;;;;;;;;;;5032500;28;20510;-36
2021/12/21 04:58:44;;;;;;;12.40;7.10;;;;;;;;;;5032683;28;20017;-36
2021/12/21 05:01:09;;;;;;;7.43;4.80;;;;;;;;;;5032489;28;20084;-35
2021/12/21 05:03:34;;;;;;;7.45;4.72;;;;;;;;;;5032153;28;20456;-36
2021/12/21 05:06:00;;;;;;;6.47;4.65;;;;;;;;;;5032341;28;20029;-36
2021/12/21 05:08:30;;;;;;;9.52;5.35;;;;;;;;;;5032079;28;20101;-36
2021/12/21 05:11:00;;;;;;;9.40;5.85;;;;;;;;;;5032145;28;20044;-36
2021/12/21 05:13:30;;;;;;;8.48;5.22;;;;;;;;;;5032266;28;20033;-36
2021/12/21 05:15:56;;;;;;;9.88;5.00;;;;;;;;;;5031775;28;20044;-36
2021/12/21 05:18:21;;;;;;;9.65;5.28;;;;;;;;;;5031895;28;20112;-36
2021/12/21 05:20:47;;;;;;;9.98;5.43;;;;;;;;;;5031948;28;20104;-36
2021/12/21 05:23:12;;;;;;;15.57;4.57;;;;;;;;;;5032052;28;20431;-36
2021/12/21 05:25:38;;;;;;;12.27;6.03;;;;;;;;;;5031786;28;20102;-36
2021/12/21 05:28:04;;;;;;;8.57;5.22;;;;;;;;;;5031833;28;20025;-35
2021/12/21 05:30:30;;;;;;;10.20;6.05;;;;;;;;;;5031952;28;20083;-36
2021/12/21 05:32:56;;;;;;;12.32;5.43;;;;;;;;;;5031997;28;20047;-35
2021/12/21 05:35:22;;;;;;;12.68;6.15;;;;;;;;;;5031508;28;20037;-35
2021/12/21 05:37:50;;;;;;;10.85;5.75;;;;;;;;;;5031868;28;20091;-35
2021/12/21 05:40:17;;;;;;;13.73;5.82;;;;;;;;;;5031375;28;20048;-35
2021/12/21 05:42:44;;;;;;;11.35;4.65;;;;;;;;;;5031874;28;20033;-36
2021/12/21 05:45:10;;;;;;;7.22;4.20;;;;;;;;;;5031782;28;20026;-35
2021/12/21 05:47:36;;;;;;;12.25;4.85;;;;;;;;;;5031750;28;20123;-35
2021/12/21 05:50:03;;;;;;;9.10;4.95;;;;;;;;;;5031707;28;20033;-35
2021/12/21 05:52:28;;;;;;;5.57;3.92;;;;;;;;;;5031671;28;20022;-35
2021/12/21 05:54:53;;;;;;;12.05;6.38;;;;;;;;;;5032045;28;20033;-36
2021/12/21 05:57:19;;;;;;;10.63;5.25;;;;;;;;;;5031170;28;20480;-35
2021/12/21 05:59:44;;;;;;;9.50;4.25;;;;;;;;;;5031644;28;20025;-35
2021/12/21 06:02:10;;;;;;;11.30;5.65;;;;;;;;;;5031435;28;20192;-35
2021/12/21 06:04:35;;;;;;;9.35;4.15;;;;;;;;;;5031154;28;20053;-35
2021/12/21 06:07:01;;;;;;;10.38;5.90;;;;;;;;;;5031543;28;20029;-35
2021/12/21 06:09:28;;;;;;;9.52;5.90;;;;;;;;;;5031151;28;20031;-35
2021/12/21 06:12:58;;;;;;;16.58;5.72;;;;;;;;;;5031200;28;20495;-35
2021/12/21 06:25:38;;;;;;;14.48;5.88;;;;;;;;;;5035057;28;20136;-36
2021/12/21 06:28:04;;;;;;;12.15;6.63;;;;;;;;;;5035773;28;20037;-36
2021/12/21 06:30:30;;;;;;;10.50;4.57;;;;;;;;;;5035323;28;20105;-36
2021/12/21 06:32:55;;;;;;;12.88;5.50;;;;;;;;;;5035352;28;20129;-35
2021/12/21 06:35:21;;;;;;;11.68;5.47;;;;;;;;;;5035170;28;20022;-36
2021/12/21 06:37:47;;;;;;;8.65;5.20;;;;;;;;;;5034997;28;20092;-36
2021/12/21 06:40:12;;;;;;;8.68;4.72;;;;;;;;;;5034805;28;20487;-36
2021/12/21 06:42:39;;;;;;;7.68;3.88;;;;;;;;;;5035043;28;20037;-36
2021/12/21 06:45:12;;;;;;;8.02;4.88;;;;;;;;;;5035056;28;20026;-36
2021/12/21 06:53:05;;;;;;;11.88;5.50;;;;;;;;;;5035056;28;20120;-36
2021/12/21 06:55:30;;;;;;;9.38;4.95;;;;;;;;;;5034423;28;20104;-36
2021/12/21 06:57:56;;;;;;;12.82;4.90;;;;;;;;;;5034663;28;20061;-36
2021/12/21 07:00:21;;;;;;;9.90;5.28;;;;;;;;;;5034879;28;20456;-36
2021/12/21 07:02:47;;;;;;;8.85;4.75;;;;;;;;;;5034522;28;20428;-36
2021/12/21 07:05:13;;;;;;;13.88;5.30;;;;;;;;;;5034394;28;20029;-36
2021/12/21 07:07:38;;;;;;;12.38;6.47;;;;;;;;;;5034455;28;20029;-36
2021/12/21 07:10:07;;;;;;;13.02;5.20;;;;;;;;;;5034603;28;20452;-36
2021/12/21 07:20:21;;;;;;;9.52;5.25;;;;;;;;;;5034117;28;20491;-39
2021/12/21 07:22:47;;;;;;;6.05;4.80;;;;;;;;;;5032873;28;20455;-36
2021/12/21 07:25:13;;;;;;;6.38;3.88;;;;;;;;;;5034102;28;20128;-35
2021/12/21 07:27:38;;;;;;;8.57;4.53;;;;;;;;;;5034350;28;20103;-36
2021/12/21 07:30:05;;;;;;;11.20;4.55;;;;;;;;;;5032922;28;20483;-35
2021/12/21 07:32:31;;;;;;;8.88;4.35;;;;;;;;;;5034154;28;20403;-36
2021/12/21 07:34:57;;;;;;;6.57;3.78;;;;;;;;;;5033885;28;20483;-36
2021/12/21 07:37:22;;;;;;;9.70;4.95;;;;;;;;;;5034014;28;20064;-35
2021/12/21 07:39:48;;;;;;;9.45;4.32;;;;;;;;;;5033808;28;20050;-36
2021/12/21 07:42:13;;;;;;;11.68;6.13;;;;;;;;;;5033886;28;20033;-36
2021/12/21 07:44:39;;;;;;;10.93;4.50;;;;;;;;;;5033604;28;20468;-36
2021/12/21 07:47:04;;;;;;;7.93;4.82;;;;;;;;;;5033685;28;20647;-36
2021/12/21 07:49:30;;;;;;;7.78;4.75;;;;;;;;;;5033887;28;20034;-36
2021/12/21 07:51:56;;;;;;;8.27;4.45;;;;;;;;;;5033588;28;20533;-36
2021/12/21 07:54:21;;;;;;;9.30;4.88;;;;;;;;;;5033750;28;20538;-36
2021/12/21 07:56:47;;;;;;;7.50;4.90;;;;;;;;;;5033671;28;20108;-36
2021/12/21 07:59:13;;;;;;;9.68;4.97;;;;;;;;;;5033514;28;20033;-36
2021/12/21 08:01:40;;;;;;;11.55;4.15;;;;;;;;;;5033337;28;20040;-36
2021/12/21 08:04:09;;;;;;;10.63;4.95;;;;;;;;;;5033665;28;20049;-35
2021/12/21 08:06:35;;;;;;;12.95;5.40;;;;;;;;;;5031979;28;20021;-36
2021/12/21 08:09:02;;;;;;;7.13;4.22;;;;;;;;;;5033355;28;20033;-36
2021/12/21 08:13:53;;;;;;;7.40;3.85;;;;;;;;;;5033456;28;20044;-35
2021/12/21 08:16:18;;;;;;;8.93;5.43;;;;;;;;;;5033297;28;20578;-36
2021/12/21 08:18:44;;;;;;;11.93;4.45;;;;;;;;;;5033128;28;20040;-36
2021/12/21 08:21:12;;;;;;;9.07;3.80;;;;;;;;;;5033301;28;20074;-36
2021/12/21 08:23:38;;;;;;;6.53;3.72;;;;;;;;;;5033258;28;20041;-35
2021/12/21 08:26:05;;;;;;;8.68;4.18;;;;;;;;;;5032951;28;20045;-36
2021/12/21 08:28:31;;;;;;;7.70;4.53;;;;;;;;;;5032820;28;20028;-36
2021/12/21 08:30:57;;;;;;;7.18;3.80;;;;;;;;;;5033154;28;20026;-36
2021/12/21 08:33:22;;;;;;;11.60;4.80;;;;;;;;;;5033057;28;20030;-36
2021/12/21 08:35:48;;;;;;;5.95;3.75;;;;;;;;;;5032625;28;20396;-36
2021/12/21 08:38:16;;;;;;;6.38;3.72;;;;;;;;;;5032848;28;20083;-36
2021/12/21 08:40:43;;;;;;;10.70;5.05;;;;;;;;;;5032255;28;20447;-36
2021/12/21 08:43:10;;;;;;;9.88;4.75;;;;;;;;;;5032923;28;20075;-35
2021/12/21 08:45:36;;;;;;;9.35;5.18;;;;;;;;;;5032516;28;20033;-35
2021/12/21 08:48:02;;;;;;;8.30;5.25;;;;;;;;;;5032594;28;20025;-35
2021/12/21 08:50:28;;;;;;;6.18;4.10;;;;;;;;;;5032652;28;20064;-36
2021/12/21 08:52:54;;;;;;;7.57;4.95;;;;;;;;;;5032448;28;20040;-36
2021/12/21 08:55:20;;;;;;;11.18;4.82;;;;;;;;;;5032437;28;20025;-36
2021/12/21 08:57:46;;;;;;;9.15;3.10;;;;;;;;;;5032656;28;20036;-36
2021/12/21 09:00:12;;;;;;;3.22;2.67;;;;;;;;;;5032318;28;20025;-35
2021/12/21 09:02:38;;;;;;;11.13;3.80;;;;;;;;;;5032181;28;20116;-36
2021/12/21 09:05:07;;;;;;;7.45;4.20;;;;;;;;;;5032545;28;20125;-35
2021/12/21 09:07:34;;;;;;;8.93;4.55;;;;;;;;;;5032402;28;20022;-36
2021/12/21 09:09:59;;;;;;;8.75;4.97;;;;;;;;;;5032137;28;20022;-36
2021/12/21 09:12:24;;;;;;;7.82;3.85;;;;;;;;;;5032079;28;20025;-35
2021/12/21 09:14:50;;;;;;;14.05;4.82;;;;;;;;;;5032052;28;20163;-36
2021/12/21 09:17:16;;;;;;;6.50;3.83;;;;;;;;;;5032156;28;20400;-35
2021/12/21 09:19:41;;;;;;;4.90;3.50;;;;;;;;;;5032034;28;20017;-35
2021/12/21 09:22:07;;;;;;;6.97;3.95;;;;;;;;;;5031951;28;20159;-36
2021/12/21 09:24:32;;;;;;;11.75;3.90;;;;;;;;;;5031757;28;20028;-36
2021/12/21 09:26:58;;;;;;;9.00;4.63;;;;;;;;;;5031815;28;20033;-36
2021/12/21 09:29:23;;;;;;;9.38;3.60;;;;;;;;;;5032008;28;20041;-37
2021/12/21 09:31:49;;;;;;;12.48;5.80;;;;;;;;;;5031754;28;20476;-35
2021/12/21 09:34:14;;;;;;;9.93;5.13;;;;;;;;;;5031722;28;20014;-35
2021/12/21 09:36:40;;;;;;;8.32;4.43;;;;;;;;;;5046850;28;20039;-36
2021/12/21 09:39:05;;;;;;;4.80;3.25;;;;;;;;;;5031587;28;20159;-36
2021/12/21 09:41:31;;;;;;;6.72;3.47;;;;;;;;;;5031363;28;20060;-35
2021/12/21 09:43:57;;;;;;;10.68;4.68;;;;;;;;;;5031650;28;20032;-35
2021/12/21 09:46:22;;;;;;;5.75;2.33;;;;;;;;;;5031726;28;20049;-35
2021/12/21 09:48:48;;;;;;;7.60;4.38;;;;;;;;;;5031551;28;20368;-36
2021/12/21 09:51:15;;;;;;;8.73;4.18;;;;;;;;;;5031421;28;20064;-35
2021/12/21 09:53:42;;;;;;;6.40;3.90;;;;;;;;;;5029399;28;20036;-36
2021/12/21 09:56:08;;;;;;;5.78;3.97;;;;;;;;;;5031319;28;20033;-38
2021/12/21 09:58:33;;;;;;;8.45;5.05;;;;;;;;;;5031456;28;20115;-35
2021/12/21 10:00:59;;;;;;;8.93;4.53;;;;;;;;;;5031256;28;20033;-35
2021/12/21 10:03:25;;;;;;;6.18;3.28;;;;;;;;;;5031531;28;20028;-36
2021/12/21 10:06:00;;;;;;;8.10;4.63;;;;;;;;;;5031301;28;20360;-36
2021/12/21 10:08:29;;;;;;;7.13;2.97;;;;;;;;;;5031218;28;20155;-36
2021/12/21 10:10:54;;;;;;;5.28;3.28;;;;;;;;;;5031606;28;20151;-36
2021/12/21 10:13:21;;;;;;;11.10;4.53;;;;;;;;;;5031149;28;20117;-36
2021/12/21 10:15:51;;;;;;;10.07;4.15;;;;;;;;;;5031129;28;20065;-35
2021/12/21 10:18:27;;;;;;;6.82;3.38;;;;;;;;;;5031286;28;20034;-36
2021/12/21 10:20:54;;;;;;;7.50;4.05;;;;;;;;;;5031192;28;20041;-35
2021/12/21 10:23:23;;;;;;;5.82;3.25;;;;;;;;;;5031075;28;20017;-35
2021/12/21 10:25:53;;;;;;;11.07;5.53;;;;;;;;;;5031142;28;20025;-36
2021/12/21 10:28:26;;;;;;;7.75;4.32;;;;;;;;;;5031208;28;20105;-36
2021/12/21 10:30:53;;;;;;;12.63;5.13;;;;;;;;;;5031109;28;20038;-35
2021/12/21 10:33:18;;;;;;;14.18;5.20;;;;;;;;;;5031309;28;20029;-36
2021/12/21 10:35:44;;;;;;;11.13;4.13;;;;;;;;;;5031141;28;20510;-36
2021/12/21 10:38:09;;;;;;;11.57;4.65;;;;;;;;;;5031132;28;20021;-36
2021/12/21 10:40:37;;;;;;;6.15;3.88;;;;;;;;;;5030761;28;20054;-35
2021/12/21 10:43:04;;;;;;;7.15;4.75;;;;;;;;;;5030968;28;20088;-35
2021/12/21 10:45:31;;;;;;;7.85;3.72;;;;;;;;;;5031425;28;20029;-36
2021/12/21 10:47:58;;;;;;;7.40;3.80;;;;;;;;;;5030953;28;20030;-36
2021/12/21 10:50:24;;;;;;;6.75;3.47;;;;;;;;;;5030804;28;20029;-35
2021/12/21 10:52:54;;;;;;;7.43;3.75;;;;;;;;;;5030896;28;20033;-35
2021/12/21 10:55:24;;;;;;;7.68;3.45;;;;;;;;;;5031029;28;20033;-36
2021/12/21 10:57:59;;;;;;;10.52;4.28;;;;;;;;;;5031082;28;20034;-35
2021/12/21 11:00:24;;;;;;;9.95;3.92;;;;;;;;;;5029454;28;20121;-36
2021/12/21 11:02:52;;;;;;;5.63;3.38;;;;;;;;;;5031149;28;20104;-36
2021/12/21 11:05:20;;;;;;;4.28;2.85;;;;;;;;;;5033379;28;20082;-35
2021/12/21 11:07:51;;;;;;;6.97;4.05;;;;;;;;;;5034545;28;20022;-36
2021/12/21 11:10:20;;;;;;;7.90;4.05;;;;;;;;;;5034356;28;20487;-36
2021/12/21 11:12:45;;;;;;;10.95;5.32;;;;;;;;;;5034691;28;20022;-36
2021/12/21 11:15:12;;;;;;;8.77;3.90;;;;;;;;;;5032998;28;20483;-36
2021/12/21 11:17:38;;;;;;;9.18;3.80;;;;;;;;;;5034103;28;20483;-36
2021/12/21 11:20:04;;;;;;;8.25;4.05;;;;;;;;;;5034479;28;20119;-36
2021/12/21 11:22:31;;;;;;;7.45;3.40;;;;;;;;;;5034097;28;20026;-36
2021/12/21 11:24:58;;;;;;;6.93;2.88;;;;;;;;;;5034099;28;20029;-35
2021/12/21 11:27:24;;;;;;;8.05;4.57;;;;;;;;;;5034021;28;20025;-36
2021/12/21 11:29:52;;;;;;;8.73;3.72;;;;;;;;;;5034072;28;20112;-36
2021/12/21 11:32:19;;;;;;;5.20;3.35;;;;;;;;;;5033987;28;20036;-35
2021/12/21 11:37:20;;;;;;;4.40;2.72;;;;;;;;;;5033887;28;20036;-36
2021/12/21 11:37:34;;;;;;;6.78;4.47;;;;;;;;;;5034039;28;20041;-36
2021/12/21 11:40:00;;;;;;;7.07;3.33;;;;;;;;;;5033700;28;20057;-35
2021/12/21 11:42:38;;;;;;;4.68;3.30;;;;;;;;;;5034016;28;20036;-36
2021/12/21 11:45:09;;;;;;;6.00;3.40;;;;;;;;;;5033767;28;20048;-35
2021/12/21 11:47:53;;;;;;;12.18;4.38;;;;;;;;;;5033645;28;20059;-36
2021/12/21 11:50:19;;;;;;;6.60;3.55;;;;;;;;;;5033959;28;20532;-36
2021/12/21 11:52:46;;;;;;;9.68;3.72;;;;;;;;;;5033637;28;20068;-36
2021/12/21 11:55:12;;;;;;;12.90;3.78;;;;;;;;;;5033869;28;20029;-36
2021/12/21 11:57:37;;;;;;;12.25;5.82;;;;;;;;;;5033402;28;20471;-35
2021/12/21 12:00:08;;;;;;;10.98;4.18;;;;;;;;;;5033483;28;20036;-36
2021/12/21 12:02:38;;;;;;;8.45;4.30;;;;;;;;;;5033420;28;20036;-36
2021/12/21 12:05:24;;;;;;;6.25;3.17;;;;;;;;;;5033751;28;20029;-35
2021/12/21 12:08:05;;;;;;;8.27;4.57;;;;;;;;;;5022235;28;20059;-36
2021/12/21 12:10:31;;;;;;;7.65;4.00;;;;;;;;;;5033501;28;20515;-36
2021/12/21 12:13:06;;;;;;;9.82;4.57;;;;;;;;;;5033551;28;20021;-35
2021/12/21 12:15:40;;;;;;;6.07;4.28;;;;;;;;;;5032543;28;20029;-35
2021/12/21 12:18:05;;;;;;;10.27;5.35;;;;;;;;;;5033489;28;20438;-35
2021/12/21 12:20:31;;;;;;;9.93;4.20;;;;;;;;;;5033014;28;20101;-36
2021/12/21 12:23:04;;;;;;;10.05;5.18;;;;;;;;;;5033070;28;20076;-36
2021/12/21 12:25:29;;;;;;;6.75;3.08;;;;;;;;;;5033246;28;20030;-35
2021/12/21 12:27:56;;;;;;;6.88;3.92;;;;;;;;;;5032933;28;20071;-36
2021/12/21 12:30:23;;;;;;;6.10;3.75;;;;;;;;;;5032821;28;20041;-36
2021/12/21 12:32:56;;;;;;;10.68;4.43;;;;;;;;;;5032879;28;20443;-35
2021/12/21 12:35:25;;;;;;;8.20;4.30;;;;;;;;;;5032719;28;20072;-36
2021/12/21 12:37:50;;;;;;;6.00;3.70;;;;;;;;;;5032689;28;20621;-36
2021/12/21 12:40:18;;;;;;;8.20;4.00;;;;;;;;;;5032501;28;20053;-36
2021/12/21 12:43:05;;;;;;;10.70;4.13;;;;;;;;;;5032612;28;20041;-35
2021/12/21 12:45:35;;;;;;;7.22;3.55;;;;;;;;;;5032467;28;20029;-35
2021/12/21 12:48:01;;;;;;;10.15;4.57;;;;;;;;;;5032593;28;20040;-36
2021/12/21 12:50:29;;;;;;;7.22;3.42;;;;;;;;;;5032450;28;20029;-36
2021/12/21 12:52:57;;;;;;;7.57;4.47;;;;;;;;;;5032539;28;20535;-36
2021/12/21 12:55:25;;;;;;;8.73;3.63;;;;;;;;;;5032617;28;20037;-36
2021/12/21 12:57:55;;;;;;;9.55;4.25;;;;;;;;;;5032249;28;20468;-36
2021/12/21 13:00:29;;;;;;;5.35;3.70;;;;;;;;;;5032298;28;20395;-36
2021/12/21 13:03:03;;;;;;;6.32;3.38;;;;;;;;;;5047683;28;20030;-36
2021/12/21 13:05:39;;;;;;;5.78;3.67;;;;;;;;;;5032360;28;20052;-36
2021/12/21 13:08:06;;;;;;;5.82;3.15;;;;;;;;;;5032181;28;20029;-36
2021/12/21 13:10:36;;;;;;;7.65;4.00;;;;;;;;;;5032362;28;20108;-36
2021/12/21 13:13:05;;;;;;;10.70;3.83;;;;;;;;;;5032088;28;20060;-35
2021/12/21 13:15:31;;;;;;;6.57;4.00;;;;;;;;;;5031904;28;20029;-36
2021/12/21 13:18:04;;;;;;;4.85;3.58;;;;;;;;;;5032353;28;20041;-36
2021/12/21 13:20:31;;;;;;;5.93;3.58;;;;;;;;;;5031858;28;20028;-35
2021/12/21 13:23:07;;;;;;;7.85;4.25;;;;;;;;;;5032224;28;20030;-36
2021/12/21 13:25:32;;;;;;;7.25;3.47;;;;;;;;;;5032038;28;20021;-35
2021/12/21 13:28:06;;;;;;;5.38;3.40;;;;;;;;;;5031846;28;20464;-35
2021/12/21 13:30:34;;;;;;;7.28;3.67;;;;;;;;;;5031740;28;20025;-35
2021/12/21 13:33:00;;;;;;;7.20;3.85;;;;;;;;;;5031721;28;20629;-36
2021/12/21 13:35:28;;;;;;;7.10;4.28;;;;;;;;;;5031617;28;20037;-36
2021/12/21 13:37:53;;;;;;;6.50;4.05;;;;;;;;;;5031611;28;20033;-35
2021/12/21 13:40:19;;;;;;;6.53;3.40;;;;;;;;;;5031444;28;20400;-36
2021/12/21 13:42:45;;;;;;;6.47;4.00;;;;;;;;;;5031553;28;20112;-36
2021/12/21 13:45:10;;;;;;;6.50;3.35;;;;;;;;;;5031627;28;20109;-36
2021/12/21 13:47:40;;;;;;;7.68;2.83;;;;;;;;;;5031512;28;20056;-35
2021/12/21 13:50:06;;;;;;;7.85;3.60;;;;;;;;;;5031763;28;20033;-35
2021/12/21 13:52:42;;;;;;;5.95;3.97;;;;;;;;;;5031726;28;20026;-36
2021/12/21 13:55:19;;;;;;;5.20;3.05;;;;;;;;;;5031481;28;20021;-36
2021/12/21 13:57:46;;;;;;;5.75;3.42;;;;;;;;;;5031319;28;20506;-36
2021/12/21 14:00:12;;;;;;;6.85;3.58;;;;;;;;;;5031402;28;20024;-36
2021/12/21 14:02:49;;;;;;;6.53;4.25;;;;;;;;;;5031571;28;20112;-35
2021/12/21 14:05:18;;;;;;;6.68;3.55;;;;;;;;;;5031228;28;20132;-36
2021/12/21 14:07:46;;;;;;;8.18;4.05;;;;;;;;;;5031562;28;20384;-35
2021/12/21 14:10:15;;;;;;;6.45;3.75;;;;;;;;;;5031513;28;20036;-35
2021/12/21 14:12:41;;;;;;;5.68;4.07;;;;;;;;;;5031441;28;20083;-36
2021/12/21 14:15:08;;;;;;;5.50;3.20;;;;;;;;;;5031214;28;20471;-35
2021/12/21 14:17:40;;;;;;;9.80;3.55;;;;;;;;;;5031163;28;20533;-36
2021/12/21 14:20:07;;;;;;;10.48;4.35;;;;;;;;;;5031182;28;20109;-36
2021/12/21 14:22:32;;;;;;;9.10;4.43;;;;;;;;;;5031053;28;20033;-35
2021/12/21 14:24:58;;;;;;;7.60;3.15;;;;;;;;;;5031162;28;20018;-35
2021/12/21 14:27:26;;;;;;;6.60;3.05;;;;;;;;;;5031625;28;20033;-36
2021/12/21 14:29:53;;;;;;;7.18;3.20;;;;;;;;;;5031374;28;20064;-36
2021/12/21 14:32:37;;;;;;;5.55;3.08;;;;;;;;;;5029897;28;20049;-36
2021/12/21 14:35:10;;;;;;;7.35;3.83;;;;;;;;;;5031082;28;20085;-36
2021/12/21 14:37:36;;;;;;;5.07;3.20;;;;;;;;;;5030801;28;20072;-36
2021/12/21 14:40:01;;;;;;;4.90;3.40;;;;;;;;;;5033472;28;20076;-36
2021/12/21 14:42:30;;;;;;;6.35;3.28;;;;;;;;;;5035119;28;20039;-36
2021/12/21 14:44:59;;;;;;;4.50;2.63;;;;;;;;;;5034823;28;20025;-36
2021/12/21 14:47:26;;;;;;;5.25;3.00;;;;;;;;;;5035135;28;20036;-35
2021/12/21 14:49:57;;;;;;;7.18;3.15;;;;;;;;;;5034856;28;20045;-36
2021/12/21 14:52:28;;;;;;;11.05;4.28;;;;;;;;;;5034969;28;20067;-36
2021/12/21 14:55:12;;;;;;;5.97;3.63;;;;;;;;;;5034750;28;20193;-36
2021/12/21 14:57:44;;;;;;;4.55;3.17;;;;;;;;;;5034481;28;20083;-36
2021/12/21 15:00:12;;;;;;;3.80;3.03;;;;;;;;;;5034585;28;20021;-36
2021/12/21 15:05:05;;;;;;;6.35;2.83;;;;;;;;;;5034818;28;20113;-36
2021/12/21 15:07:34;;;;;;;6.75;3.72;;;;;;;;;;5034409;28;20029;-36
2021/12/21 15:10:00;;;;;;;9.48;4.68;;;;;;;;;;5034711;28;20038;-36
2021/12/21 15:12:26;;;;;;;9.73;4.13;;;;;;;;;;5034290;28;20021;-36
2021/12/21 15:14:53;;;;;;;5.32;4.15;;;;;;;;;;5034311;28;20048;-36
2021/12/21 15:17:18;;;;;;;3.08;2.22;;;;;;;;;;5034280;28;20029;-36
2021/12/21 15:19:44;;;;;;;7.03;3.40;;;;;;;;;;5034368;28;20037;-35
2021/12/21 15:22:09;;;;;;;5.97;3.30;;;;;;;;;;5034594;28;20064;-35
2021/12/21 15:24:35;;;;;;;6.68;3.75;;;;;;;;;;5034042;28;20447;-35
2021/12/21 15:27:01;;;;;;;7.35;4.63;;;;;;;;;;5034152;28;20077;-36
2021/12/21 15:29:26;;;;;;;9.07;3.53;;;;;;;;;;5033992;28;20096;-36
2021/12/21 15:31:52;;;;;;;6.45;3.80;;;;;;;;;;5034130;28;20029;-36
2021/12/21 15:34:18;;;;;;;4.43;3.33;;;;;;;;;;5034139;28;20029;-36
2021/12/21 15:36:44;;;;;;;9.02;4.72;;;;;;;;;;5033808;28;20033;-36
2021/12/21 15:39:16;;;;;;;7.60;4.90;;;;;;;;;;5033996;28;20029;-36
2021/12/21 15:41:42;;;;;;;6.80;3.60;;;;;;;;;;5033637;28;20466;-36